createdAt,value
2023-05-21T00:00:26.939Z,101779.03
2023-05-21T00:02:55.176Z,101780.69
2023-05-21T00:05:23.982Z,101771.09
2023-05-21T00:07:53.376Z,101770.09
2023-05-21T00:10:21.638Z,101766.69
2023-05-21T00:12:49.738Z,101763.09
2023-05-21T00:15:17.854Z,101768.41
2023-05-21T00:17:47.271Z,101758.59
2023-05-21T00:20:16.342Z,101760.41
2023-05-21T00:22:44.442Z,101757.78
2023-05-21T00:25:13.230Z,101741.78
2023-05-21T00:27:41.296Z,101750.09
2023-05-21T00:30:10.000Z,101756.13
2023-05-21T00:32:38.152Z,101749.09
2023-05-21T00:35:08.930Z,101744.13
2023-05-21T00:37:36.910Z,101746.63
2023-05-21T00:40:07.619Z,101749.47
2023-05-21T00:42:39.281Z,101749.59
2023-05-21T00:45:09.102Z,101752.31
2023-05-21T00:47:37.292Z,101748.03
2023-05-21T00:50:07.971Z,101750.56
2023-05-21T00:52:41.626Z,101752.53
2023-05-21T00:55:11.004Z,101739.13
2023-05-21T00:57:40.840Z,101746.28
2023-05-21T01:00:10.960Z,101729.69
2023-05-21T01:02:39.631Z,101741.09
2023-05-21T01:05:11.073Z,101743.56
2023-05-21T01:07:41.592Z,101742.03
2023-05-21T01:10:12.780Z,101742.81
2023-05-21T01:12:43.925Z,101744.56
2023-05-21T01:15:13.037Z,101740.09
2023-05-21T01:17:41.671Z,101741.75
2023-05-21T01:20:11.955Z,101741.84
2023-05-21T01:22:44.677Z,101740.13
2023-05-21T01:25:15.106Z,101747.31
2023-05-21T01:27:43.190Z,101739.28
2023-05-21T01:30:12.460Z,101743.84
2023-05-21T01:32:46.246Z,101736.72
2023-05-21T01:35:18.534Z,101735.88
2023-05-21T01:37:52.688Z,101730.44
2023-05-21T01:40:31.138Z,101734.75
2023-05-21T01:42:59.892Z,101732.19
2023-05-21T01:45:28.732Z,101732.06
2023-05-21T01:47:57.304Z,101719.91
2023-05-21T01:50:26.720Z,101730.34
2023-05-21T01:52:56.897Z,101724.97
2023-05-21T01:55:26.908Z,101728.63
2023-05-21T01:57:56.510Z,101725.16
2023-05-21T02:00:25.692Z,101711.88
2023-05-21T02:02:53.995Z,101722.59
2023-05-21T02:05:22.083Z,101716.31
2023-05-21T02:07:53.425Z,101695.97
2023-05-21T02:10:21.587Z,101708.22
2023-05-21T02:12:50.957Z,101713.56
2023-05-21T02:15:19.284Z,101687.13
2023-05-21T02:17:47.742Z,101711.88
2023-05-21T02:20:15.882Z,101714.59
2023-05-21T02:22:45.469Z,101706.44
2023-05-21T02:25:14.842Z,101711.16
2023-05-21T02:27:44.550Z,101703.94
2023-05-21T02:30:15.723Z,101706.69
2023-05-21T02:32:45.022Z,101698.53
2023-05-21T02:35:14.265Z,101680.91
2023-05-21T02:37:43.937Z,101696.19
2023-05-21T02:40:13.118Z,101695.31
2023-05-21T02:42:42.147Z,101685.41
2023-05-21T02:45:12.178Z,101685.47
2023-05-21T02:47:41.745Z,101688.94
2023-05-21T02:50:10.676Z,101682.69
2023-05-21T02:52:38.686Z,101676.59
2023-05-21T02:55:07.733Z,101681.94
2023-05-21T02:57:35.717Z,101679.44
2023-05-21T03:00:06.032Z,101681.28
2023-05-21T03:02:34.277Z,101675.06
2023-05-21T03:05:03.796Z,101675.91
2023-05-21T03:07:32.420Z,101678.63
2023-05-21T03:10:00.488Z,101681.28
2023-05-21T03:12:28.460Z,101676.97
2023-05-21T03:14:56.604Z,101678.78
2023-05-21T03:17:24.673Z,101668.94
2023-05-21T03:19:54.602Z,101678.75
2023-05-21T03:22:24.061Z,101674.41
2023-05-21T03:24:53.354Z,101673.41
2023-05-21T03:27:21.496Z,101671.69
2023-05-21T03:29:50.105Z,101681.56
2023-05-21T03:32:18.277Z,101685.06
2023-05-21T03:34:46.338Z,101675.31
2023-05-21T03:37:14.363Z,101670.06
2023-05-21T03:39:43.715Z,101674.50
2023-05-21T03:42:14.045Z,101673.63
2023-05-21T03:44:42.133Z,101682.50
2023-05-21T03:47:10.159Z,101667.44
2023-05-21T03:49:38.135Z,101670.88
2023-05-21T03:52:06.418Z,101665.66
2023-05-21T03:54:34.397Z,101670.88
2023-05-21T03:57:03.827Z,101668.13
2023-05-21T03:59:33.698Z,101663.59
2023-05-21T04:02:01.834Z,101664.59
2023-05-21T04:04:30.385Z,101668.97
2023-05-21T04:06:58.463Z,101652.91
2023-05-21T04:09:27.614Z,101664.31
2023-05-21T04:11:55.862Z,101657.94
2023-05-21T04:14:25.249Z,101655.97
2023-05-21T04:16:53.225Z,101655.13
2023-05-21T04:19:21.351Z,101654.13
2023-05-21T04:21:49.465Z,101654.03
2023-05-21T04:24:17.715Z,101645.84
2023-05-21T04:26:45.716Z,101650.13
2023-05-21T04:29:13.784Z,101644.09
2023-05-21T04:31:43.197Z,101639.38
2023-05-21T04:34:11.338Z,101631.13
2023-05-21T04:36:39.463Z,101633.88
2023-05-21T04:39:07.488Z,101633.91
2023-05-21T04:41:36.721Z,101633.69
2023-05-21T04:44:04.957Z,101637.06
2023-05-21T04:46:33.027Z,101636.09
2023-05-21T04:49:03.847Z,101632.56
2023-05-21T04:51:32.639Z,101631.47
2023-05-21T04:54:00.629Z,101629.53
2023-05-21T04:56:29.450Z,101628.56
2023-05-21T04:58:58.850Z,101633.63
2023-05-21T05:01:29.420Z,101631.66
2023-05-21T05:03:57.587Z,101639.63
2023-05-21T05:06:27.047Z,101633.31
2023-05-21T05:08:55.077Z,101628.66
2023-05-21T05:11:23.257Z,101637.34
2023-05-21T05:13:51.279Z,101630.97
2023-05-21T05:16:25.199Z,101634.22
2023-05-21T05:18:53.718Z,101633.03
2023-05-21T05:21:23.677Z,101625.88
2023-05-21T05:23:53.140Z,101638.09
2023-05-21T05:26:21.595Z,101639.00
2023-05-21T05:28:49.652Z,101635.41
2023-05-21T05:31:17.717Z,101635.09
2023-05-21T05:33:45.816Z,101635.47
2023-05-21T05:36:13.810Z,101631.47
2023-05-21T05:38:41.840Z,101634.03
2023-05-21T05:41:11.425Z,101632.22
2023-05-21T05:43:39.476Z,101622.97
2023-05-21T05:46:07.495Z,101632.59
2023-05-21T05:48:35.620Z,101624.53
2023-05-21T05:51:03.667Z,101627.91
2023-05-21T05:53:32.030Z,101622.69
2023-05-21T05:56:00.606Z,101626.13
2023-05-21T05:58:30.969Z,101631.34
2023-05-21T06:00:58.976Z,101618.72
2023-05-21T06:03:28.135Z,101634.50
2023-05-21T06:05:56.534Z,101637.91
2023-05-21T06:08:24.792Z,101634.19
2023-05-21T06:10:52.896Z,101635.91
2023-05-21T06:13:21.075Z,101633.13
2023-05-21T06:15:51.568Z,101626.00
2023-05-21T06:18:19.599Z,101623.78
2023-05-21T06:20:47.668Z,101622.81
2023-05-21T06:23:15.688Z,101623.53
2023-05-21T06:25:43.737Z,101624.91
2023-05-21T06:28:11.742Z,101615.78
2023-05-21T06:30:39.724Z,101618.84
2023-05-21T06:33:09.270Z,101614.19
2023-05-21T06:35:39.275Z,101623.91
2023-05-21T06:38:07.408Z,101622.66
2023-05-21T06:40:35.720Z,101619.47
2023-05-21T06:43:05.281Z,101621.50
2023-05-21T06:45:33.485Z,101628.13
2023-05-21T06:48:01.596Z,101617.03
2023-05-21T06:50:31.475Z,101624.91
2023-05-21T06:52:59.504Z,101623.59
2023-05-21T06:55:27.530Z,101614.53
2023-05-21T06:57:55.822Z,101620.34
2023-05-21T07:00:23.907Z,101615.47
2023-05-21T07:02:52.035Z,101618.75
2023-05-21T07:05:20.281Z,101615.84
2023-05-21T07:07:49.670Z,101611.84
2023-05-21T07:10:17.851Z,101611.75
2023-05-21T07:12:46.038Z,101615.38
2023-05-21T07:15:14.063Z,101617.31
2023-05-21T07:17:42.126Z,101601.25
2023-05-21T07:20:11.669Z,101613.88
2023-05-21T07:22:40.057Z,101602.34
2023-05-21T07:25:10.545Z,101604.78
2023-05-21T07:27:38.611Z,101601.78
2023-05-21T07:30:07.938Z,101606.91
2023-05-21T07:32:36.081Z,101611.66
2023-05-21T07:35:04.497Z,101601.69
2023-05-21T07:37:32.533Z,101601.63
2023-05-21T07:40:00.663Z,101601.44
2023-05-21T07:42:30.022Z,101602.56
2023-05-21T07:44:58.035Z,101602.84
2023-05-21T07:47:26.476Z,101604.09
2023-05-21T07:49:54.528Z,101600.28
2023-05-21T07:52:22.583Z,101597.28
2023-05-21T07:54:50.800Z,101600.06
2023-05-21T07:57:18.824Z,101597.94
2023-05-21T07:59:48.466Z,101599.63
2023-05-21T08:02:16.693Z,101593.31
2023-05-21T08:04:44.786Z,101594.50
2023-05-21T08:07:13.791Z,101579.88
2023-05-21T08:09:41.819Z,101586.31
2023-05-21T08:12:09.805Z,101582.16
2023-05-21T08:14:37.850Z,101588.56
2023-05-21T08:17:07.367Z,101587.25
2023-05-21T08:19:35.518Z,101576.53
2023-05-21T08:22:03.581Z,101584.75
2023-05-21T08:24:31.640Z,101577.03
2023-05-21T08:26:59.619Z,101581.84
2023-05-21T08:29:27.619Z,101582.06
2023-05-21T08:31:55.748Z,101581.00
2023-05-21T08:34:25.225Z,101582.78
2023-05-21T08:36:53.859Z,101589.53
2023-05-21T08:39:22.031Z,101569.88
2023-05-21T08:41:55.076Z,101579.78
2023-05-21T08:44:26.864Z,101582.28
2023-05-21T08:46:58.662Z,101579.78
2023-05-21T08:49:33.846Z,101589.09
2023-05-21T08:52:02.775Z,101590.94
2023-05-21T08:54:30.878Z,101592.69
2023-05-21T08:57:00.583Z,101590.16
2023-05-21T08:59:28.614Z,101578.44
2023-05-21T09:01:57.637Z,101573.78
2023-05-21T09:04:27.589Z,101578.66
2023-05-21T09:06:59.316Z,101567.50
2023-05-21T09:09:40.778Z,101561.91
2023-05-21T09:12:09.608Z,101566.38
2023-05-21T09:14:39.120Z,101560.53
2023-05-21T09:17:07.201Z,101562.34
2023-05-21T09:19:35.338Z,101562.78
2023-05-21T09:22:05.678Z,101569.28
2023-05-21T09:24:36.269Z,101566.16
2023-05-21T09:27:07.920Z,101560.00
2023-05-21T09:29:36.196Z,101563.38
2023-05-21T09:32:08.018Z,101564.34
2023-05-21T09:34:37.086Z,101561.50
2023-05-21T09:37:13.608Z,101568.78
2023-05-21T09:39:49.014Z,101570.19
2023-05-21T09:42:17.426Z,101566.66
2023-05-21T09:44:45.532Z,101573.63
2023-05-21T09:47:13.550Z,101576.81
2023-05-21T09:49:45.128Z,101572.63
2023-05-21T09:52:14.627Z,101574.19
2023-05-21T09:54:42.668Z,101562.78
2023-05-21T09:57:10.700Z,101561.81
2023-05-21T09:59:40.941Z,101559.28
2023-05-21T10:02:19.014Z,101553.31
2023-05-21T10:04:49.985Z,101560.69
2023-05-21T10:07:21.688Z,101563.03
2023-05-21T10:09:50.709Z,101568.03
2023-05-21T10:12:20.071Z,101564.72
2023-05-21T10:14:55.475Z,101554.50
2023-05-21T10:17:24.724Z,101559.66
2023-05-21T10:19:55.289Z,101550.50
2023-05-21T10:22:25.909Z,101558.53
2023-05-21T10:24:55.358Z,101548.97
2023-05-21T10:27:24.116Z,101554.81
2023-05-21T10:29:54.266Z,101545.75
2023-05-21T10:32:23.962Z,101542.69
2023-05-21T10:34:54.430Z,101546.88
2023-05-21T10:37:26.570Z,101539.94
2023-05-21T10:39:54.935Z,101541.22
2023-05-21T10:42:44.884Z,101546.88
2023-05-21T10:45:20.954Z,101534.50
2023-05-21T10:48:18.807Z,101534.97
2023-05-21T10:51:11.353Z,101533.31
2023-05-21T10:53:54.630Z,101532.63
2023-05-21T10:56:26.446Z,101522.53
2023-05-21T10:59:15.312Z,101528.44
2023-05-21T11:01:43.814Z,101529.28
2023-05-21T11:04:15.668Z,101527.56
2023-05-21T11:06:48.443Z,101520.78
2023-05-21T11:09:17.958Z,101520.41
2023-05-21T11:11:48.624Z,101520.00
2023-05-21T11:14:35.484Z,101524.06
2023-05-21T11:17:04.466Z,101522.44
2023-05-21T11:19:38.028Z,101509.72
2023-05-21T11:22:08.520Z,101520.97
2023-05-21T11:24:41.636Z,101514.88
2023-05-21T11:27:09.759Z,101501.72
2023-05-21T11:29:41.333Z,101508.38
2023-05-21T11:32:11.020Z,101504.72
2023-05-21T11:34:41.772Z,101505.06
2023-05-21T11:37:33.211Z,101509.34
2023-05-21T11:40:26.106Z,101506.56
2023-05-21T11:42:56.217Z,101501.34
2023-05-21T11:45:29.061Z,101506.03
2023-05-21T11:47:57.399Z,101490.63
2023-05-21T11:50:26.372Z,101500.31
2023-05-21T11:52:54.589Z,101501.09
2023-05-21T11:55:26.273Z,101498.06
2023-05-21T11:57:55.543Z,101492.16
2023-05-21T12:00:24.414Z,101496.97
2023-05-21T12:02:55.672Z,101481.16
2023-05-21T12:05:24.422Z,101498.91
2023-05-21T12:07:52.489Z,101493.03
2023-05-21T12:10:24.834Z,101490.41
2023-05-21T12:12:57.007Z,101483.59
2023-05-21T12:15:27.567Z,101486.56
2023-05-21T12:17:57.163Z,101479.88
2023-05-21T12:20:28.033Z,101487.00
2023-05-21T12:22:57.714Z,101478.19
2023-05-21T12:25:27.466Z,101486.75
2023-05-21T12:27:58.225Z,101482.41
2023-05-21T12:30:26.905Z,101470.78
2023-05-21T12:32:55.002Z,101466.94
2023-05-21T12:35:23.970Z,101471.25
2023-05-21T12:37:53.103Z,101475.28
2023-05-21T12:40:22.469Z,101465.09
2023-05-21T12:42:52.679Z,101463.00
2023-05-21T12:45:22.767Z,101458.56
2023-05-21T12:47:56.029Z,101457.44
2023-05-21T12:50:24.670Z,101445.84
2023-05-21T12:52:56.125Z,101461.38
2023-05-21T12:55:25.655Z,101454.75
2023-05-21T12:58:05.141Z,101447.38
2023-05-21T13:00:34.048Z,101455.47
2023-05-21T13:03:04.463Z,101450.72
2023-05-21T13:05:32.943Z,101450.41
2023-05-21T13:08:01.089Z,101441.47
2023-05-21T13:10:29.183Z,101440.41
2023-05-21T13:12:57.230Z,101440.25
2023-05-21T13:15:26.751Z,101431.94
2023-05-21T13:17:56.708Z,101439.94
2023-05-21T13:20:27.503Z,101433.84
2023-05-21T13:22:55.877Z,101424.75
2023-05-21T13:25:28.403Z,101439.78
2023-05-21T13:27:57.092Z,101429.03
2023-05-21T13:30:26.753Z,101429.16
2023-05-21T13:32:55.673Z,101425.94
2023-05-21T13:35:23.874Z,101429.16
2023-05-21T13:37:51.911Z,101421.41
2023-05-21T13:40:20.076Z,101419.69
2023-05-21T13:42:50.217Z,101419.94
2023-05-21T13:45:20.232Z,101430.78
2023-05-21T13:47:49.743Z,101412.84
2023-05-21T13:50:18.109Z,101417.41
2023-05-21T13:52:46.379Z,101416.22
2023-05-21T13:55:15.833Z,101411.50
2023-05-21T13:57:44.333Z,101404.75
2023-05-21T14:00:15.385Z,101399.50
2023-05-21T14:02:44.123Z,101398.44
2023-05-21T14:05:13.764Z,101407.78
2023-05-21T14:07:42.862Z,101400.28
2023-05-21T14:10:12.015Z,101394.66
2023-05-21T14:12:40.899Z,101404.97
2023-05-21T14:15:09.792Z,101399.56
2023-05-21T14:17:40.177Z,101393.09
2023-05-21T14:20:09.796Z,101400.59
2023-05-21T14:22:39.478Z,101401.06
2023-05-21T14:25:08.288Z,101403.22
2023-05-21T14:27:38.024Z,101413.38
2023-05-21T14:30:07.038Z,101401.53
2023-05-21T14:32:35.105Z,101398.63
2023-05-21T14:35:03.254Z,101390.66
2023-05-21T14:37:31.331Z,101390.19
2023-05-21T14:40:00.692Z,101385.25
2023-05-21T14:42:28.750Z,101391.31
2023-05-21T14:44:56.744Z,101393.34
2023-05-21T14:47:24.890Z,101379.78
2023-05-21T14:49:52.991Z,101391.56
2023-05-21T14:52:21.102Z,101387.94
2023-05-21T14:54:49.154Z,101398.78
2023-05-21T14:57:18.509Z,101393.28
2023-05-21T14:59:46.516Z,101388.63
2023-05-21T15:02:14.698Z,101394.06
2023-05-21T15:04:42.787Z,101393.06
2023-05-21T15:07:10.852Z,101388.97
2023-05-21T15:09:38.889Z,101395.72
2023-05-21T15:12:07.187Z,101400.25
2023-05-21T15:14:36.655Z,101400.34
2023-05-21T15:17:04.940Z,101381.44
2023-05-21T15:19:33.109Z,101388.31
2023-05-21T15:22:01.329Z,101383.66
2023-05-21T15:24:29.382Z,101392.53
2023-05-21T15:26:57.410Z,101393.31
2023-05-21T15:29:25.629Z,101386.09
2023-05-21T15:31:55.092Z,101391.38
2023-05-21T15:34:23.151Z,101387.69
2023-05-21T15:36:51.191Z,101386.19
2023-05-21T15:39:19.220Z,101385.03
2023-05-21T15:41:47.210Z,101387.09
2023-05-21T15:44:15.203Z,101380.19
2023-05-21T15:46:43.852Z,101373.84
2023-05-21T15:49:13.263Z,101371.78
2023-05-21T15:51:41.473Z,101358.63
2023-05-21T15:54:09.566Z,101372.91
2023-05-21T15:56:37.619Z,101373.66
2023-05-21T15:59:05.716Z,101369.03
2023-05-21T16:01:34.328Z,101358.97
2023-05-21T16:04:03.156Z,101357.00
2023-05-21T16:06:32.611Z,101354.19
2023-05-21T16:09:01.145Z,101350.88
2023-05-21T16:11:29.652Z,101357.59
2023-05-21T16:13:57.725Z,101356.63
2023-05-21T16:16:25.810Z,101345.31
2023-05-21T16:18:54.447Z,101350.06
2023-05-21T16:21:22.538Z,101347.31
2023-05-21T16:23:51.895Z,101349.78
2023-05-21T16:26:20.029Z,101349.53
2023-05-21T16:28:48.124Z,101353.50
2023-05-21T16:31:16.173Z,101353.88
2023-05-21T16:33:44.303Z,101344.13
2023-05-21T16:36:12.341Z,101347.47
2023-05-21T16:38:40.392Z,101351.06
2023-05-21T16:41:10.168Z,101346.72
2023-05-21T16:43:38.217Z,101343.41
2023-05-21T16:46:06.523Z,101349.59
2023-05-21T16:48:36.105Z,101348.00
2023-05-21T16:51:06.150Z,101341.06
2023-05-21T16:53:34.181Z,101339.78
2023-05-21T16:56:02.252Z,101341.09
2023-05-21T16:58:33.128Z,101332.88
2023-05-21T17:01:01.154Z,101331.53
2023-05-21T17:03:29.752Z,101337.69
2023-05-21T17:05:57.772Z,101329.13
2023-05-21T17:08:25.823Z,101337.00
2023-05-21T17:10:54.025Z,101341.09
2023-05-21T17:13:23.265Z,101337.94
2023-05-21T17:15:53.154Z,101344.81
2023-05-21T17:18:21.296Z,101343.00
2023-05-21T17:20:49.370Z,101347.59
2023-05-21T17:23:17.488Z,101337.56
2023-05-21T17:25:45.675Z,101342.78
2023-05-21T17:28:13.770Z,101346.28
2023-05-21T17:30:41.757Z,101345.28
2023-05-21T17:33:12.245Z,101343.91
2023-05-21T17:35:40.447Z,101349.13
2023-05-21T17:38:08.580Z,101341.50
2023-05-21T17:40:36.766Z,101347.28
2023-05-21T17:43:07.242Z,101349.53
2023-05-21T17:45:35.539Z,101355.09
2023-05-21T17:48:03.970Z,101353.38
2023-05-21T17:50:34.267Z,101348.56
2023-05-21T17:53:02.343Z,101348.47
2023-05-21T17:55:37.819Z,101289.00
2023-05-21T17:58:06.475Z,101352.47
2023-05-21T18:00:34.724Z,101355.09
2023-05-21T18:03:02.867Z,101363.47
2023-05-21T18:05:31.028Z,101359.53
2023-05-21T18:08:01.089Z,101333.88
2023-05-21T18:10:29.374Z,101362.91
2023-05-21T18:12:57.514Z,101361.81
2023-05-21T18:15:25.580Z,101352.38
2023-05-21T18:17:53.653Z,101349.31
2023-05-21T18:20:21.749Z,101357.22
2023-05-21T18:22:49.769Z,101355.06
2023-05-21T18:25:19.270Z,101361.53
2023-05-21T18:27:47.336Z,101356.53
2023-05-21T18:30:15.593Z,101355.00
2023-05-21T18:32:45.012Z,101361.19
2023-05-21T18:35:14.433Z,101360.38
2023-05-21T18:37:46.540Z,101357.19
2023-05-21T18:40:15.167Z,101366.53
2023-05-21T18:42:44.561Z,101354.09
2023-05-21T18:45:13.265Z,101361.81
2023-05-21T18:47:42.958Z,101363.72
2023-05-21T18:50:12.951Z,101360.16
2023-05-21T18:52:41.024Z,101360.03
2023-05-21T18:55:10.008Z,101361.78
2023-05-21T18:57:38.213Z,101366.56
2023-05-21T19:00:09.539Z,101356.47
2023-05-21T19:02:38.191Z,101355.22
2023-05-21T19:05:07.373Z,101364.72
2023-05-21T19:07:36.163Z,101362.50
2023-05-21T19:10:04.695Z,101354.94
2023-05-21T19:12:33.992Z,101366.19
2023-05-21T19:15:02.153Z,101361.53
2023-05-21T19:17:31.726Z,101366.75
2023-05-21T19:19:59.874Z,101358.63
2023-05-21T19:22:29.058Z,101359.91
2023-05-21T19:24:57.185Z,101360.47
2023-05-21T19:27:25.781Z,101363.66
2023-05-21T19:29:53.825Z,101357.56
2023-05-21T19:32:23.607Z,101355.53
2023-05-21T19:34:53.214Z,101365.94
2023-05-21T19:37:21.224Z,101358.88
2023-05-21T19:39:50.313Z,101359.66
2023-05-21T19:42:21.275Z,101372.34
2023-05-21T19:44:49.414Z,101371.50
2023-05-21T19:47:17.589Z,101370.53
2023-05-21T19:49:45.671Z,101373.00
2023-05-21T19:52:15.114Z,101372.88
2023-05-21T19:54:43.199Z,101382.47
2023-05-21T19:57:13.241Z,101387.81
2023-05-21T19:59:41.246Z,101400.41
2023-05-21T20:02:13.311Z,101393.50
2023-05-21T20:04:41.370Z,101399.09
2023-05-21T20:07:09.412Z,101403.91
2023-05-21T20:09:38.898Z,101399.72
2023-05-21T20:12:07.737Z,101399.03
2023-05-21T20:14:35.962Z,101402.78
2023-05-21T20:17:05.798Z,101402.63
2023-05-21T20:19:34.024Z,101402.53
2023-05-21T20:22:02.216Z,101407.66
2023-05-21T20:24:30.394Z,101409.91
2023-05-21T20:27:01.465Z,101409.81
2023-05-21T20:29:29.929Z,101398.16
2023-05-21T20:31:57.994Z,101405.81
2023-05-21T20:34:27.344Z,101408.69
2023-05-21T20:36:58.012Z,101401.56
2023-05-21T20:39:27.798Z,101403.97
2023-05-21T20:41:56.148Z,101406.13
2023-05-21T20:44:27.543Z,101409.19
2023-05-21T20:46:55.775Z,101411.63
2023-05-21T20:49:25.851Z,101412.75
2023-05-21T20:51:53.969Z,101406.75
2023-05-21T20:54:23.215Z,101406.88
2023-05-21T20:56:54.872Z,101417.63
2023-05-21T20:59:22.899Z,101409.94
2023-05-21T21:01:52.585Z,101412.13
2023-05-21T21:04:20.839Z,101402.09
2023-05-21T21:06:50.256Z,101409.31
2023-05-21T21:09:18.485Z,101405.91
2023-05-21T21:11:46.544Z,101409.63
2023-05-21T21:14:14.735Z,101400.84
2023-05-21T21:16:42.762Z,101406.25
2023-05-21T21:19:12.366Z,101400.13
2023-05-21T21:21:40.455Z,101404.91
2023-05-21T21:24:09.018Z,101406.59
2023-05-21T21:26:37.059Z,101409.88
2023-05-21T21:29:05.153Z,101405.69
2023-05-21T21:31:33.413Z,101401.47
2023-05-21T21:34:01.553Z,101407.06
2023-05-21T21:36:31.331Z,101409.06
2023-05-21T21:38:59.310Z,101411.22
2023-05-21T21:41:27.390Z,101406.75
2023-05-21T21:43:55.435Z,101403.69
2023-05-21T21:46:23.477Z,101410.66
2023-05-21T21:48:51.643Z,101417.97
2023-05-21T21:51:23.190Z,101409.13
2023-05-21T21:53:52.969Z,101404.78
2023-05-21T21:56:22.099Z,101408.19
2023-05-21T21:58:50.116Z,101407.72
2023-05-21T22:01:18.804Z,101406.06
2023-05-21T22:03:46.871Z,101409.63
2023-05-21T22:06:14.895Z,101404.31
2023-05-21T22:08:42.998Z,101412.34
2023-05-21T22:11:12.686Z,101407.88
2023-05-21T22:13:41.690Z,101397.56
2023-05-21T22:16:11.676Z,101405.41
2023-05-21T22:18:42.116Z,101404.91
2023-05-21T22:21:10.973Z,101412.13
2023-05-21T22:23:39.328Z,101401.00
2023-05-21T22:26:07.550Z,101404.91
2023-05-21T22:28:37.010Z,101400.75
2023-05-21T22:31:05.730Z,101397.19
2023-05-21T22:33:33.814Z,101396.69
2023-05-21T22:36:01.932Z,101403.53
2023-05-21T22:38:30.039Z,101392.41
2023-05-21T22:40:58.107Z,101391.78
2023-05-21T22:43:26.699Z,101390.34
2023-05-21T22:45:56.187Z,101393.81
2023-05-21T22:48:24.440Z,101395.16
2023-05-21T22:50:53.501Z,101396.47
2023-05-21T22:53:21.810Z,101394.78
2023-05-21T22:55:50.143Z,101383.72
2023-05-21T22:58:18.462Z,101393.28
2023-05-21T23:00:47.613Z,101396.44
2023-05-21T23:03:17.512Z,101393.34
2023-05-21T23:05:46.079Z,101389.28
2023-05-21T23:08:14.315Z,101387.25
2023-05-21T23:10:42.388Z,101387.66
2023-05-21T23:13:10.615Z,101383.16
2023-05-21T23:15:39.011Z,101390.25
2023-05-21T23:18:08.803Z,101389.34
2023-05-21T23:20:40.913Z,101383.88
2023-05-21T23:23:09.852Z,101384.03
2023-05-21T23:25:37.921Z,101391.03
2023-05-21T23:28:06.178Z,101391.81
2023-05-21T23:30:34.209Z,101388.50
2023-05-21T23:33:02.562Z,101372.03
2023-05-21T23:35:30.666Z,101385.78
2023-05-21T23:38:00.060Z,101380.31
2023-05-21T23:40:28.092Z,101379.66
2023-05-21T23:42:56.134Z,101381.56
2023-05-21T23:45:24.220Z,101382.00
2023-05-21T23:47:53.037Z,101380.47
2023-05-21T23:50:21.043Z,101376.09
2023-05-21T23:52:49.176Z,101373.47
2023-05-21T23:55:18.793Z,101370.78
2023-05-21T23:57:46.797Z,101370.84
